sensor_id;sensor_type;location;lat;lon;timestamp;pressure;altitude;pressure_sealevel;temperature;humidity
55044;BME280;54902;50.420;18.854;2023-05-23T00:00:06;101107.21;;;14.33;54.29
55044;BME280;54902;50.420;18.854;2023-05-23T00:00:37;101113.74;;;14.32;54.25
55044;BME280;54902;50.420;18.854;2023-05-23T00:01:08;101115.45;;;14.33;54.01
55044;BME280;54902;50.420;18.854;2023-05-23T00:01:39;101108.24;;;14.32;54.09
55044;BME280;54902;50.420;18.854;2023-05-23T00:02:12;101113.74;;;14.32;54.21
55044;BME280;54902;50.420;18.854;2023-05-23T00:02:45;101107.35;;;14.31;54.47
55044;BME280;54902;50.420;18.854;2023-05-23T00:03:17;101107.35;;;14.31;54.46
55044;BME280;54902;50.420;18.854;2023-05-23T00:03:52;101110.26;;;14.30;54.69
55044;BME280;54902;50.420;18.854;2023-05-23T00:04:25;101106.50;;;14.31;54.62
55044;BME280;54902;50.420;18.854;2023-05-23T00:04:56;101102.01;;;14.30;54.58
55044;BME280;54902;50.420;18.854;2023-05-23T00:05:28;101098.40;;;14.29;54.89
55044;BME280;54902;50.420;18.854;2023-05-23T00:06:00;101105.62;;;14.30;54.89
55044;BME280;54902;50.420;18.854;2023-05-23T00:06:31;101102.16;;;14.28;54.82
55044;BME280;54902;50.420;18.854;2023-05-23T00:07:03;101102.16;;;14.28;54.81
55044;BME280;54902;50.420;18.854;2023-05-23T00:07:35;101100.42;;;14.27;54.70
55044;BME280;54902;50.420;18.854;2023-05-23T00:08:06;101100.42;;;14.27;54.84
55044;BME280;54902;50.420;18.854;2023-05-23T00:08:37;101099.57;;;14.27;54.71
55044;BME280;54902;50.420;18.854;2023-05-23T00:09:08;101097.81;;;14.26;54.66
55044;BME280;54902;50.420;18.854;2023-05-23T00:09:39;101097.81;;;14.26;54.73
55044;BME280;54902;50.420;18.854;2023-05-23T00:10:10;101099.70;;;14.25;54.93
55044;BME280;54902;50.420;18.854;2023-05-23T00:10:42;101096.06;;;14.25;54.79
55044;BME280;54902;50.420;18.854;2023-05-23T00:11:14;101100.71;;;14.24;54.74
55044;BME280;54902;50.420;18.854;2023-05-23T00:11:45;101098.12;;;14.23;54.58
55044;BME280;54902;50.420;18.854;2023-05-23T00:12:16;101096.37;;;14.22;54.63
55044;BME280;54902;50.420;18.854;2023-05-23T00:12:47;101091.73;;;14.22;54.66
55044;BME280;54902;50.420;18.854;2023-05-23T00:13:18;101090.87;;;14.22;54.54
55044;BME280;54902;50.420;18.854;2023-05-23T00:13:49;101095.63;;;14.20;54.50
55044;BME280;54902;50.420;18.854;2023-05-23T00:14:21;101092.88;;;14.20;54.54
55044;BME280;54902;50.420;18.854;2023-05-23T00:14:53;101092.88;;;14.20;54.44
55044;BME280;54902;50.420;18.854;2023-05-23T00:15:24;101091.17;;;14.19;54.41
55044;BME280;54902;50.420;18.854;2023-05-23T00:15:55;101096.66;;;14.19;54.50
55044;BME280;54902;50.420;18.854;2023-05-23T00:16:27;101096.66;;;14.19;54.52
55044;BME280;54902;50.420;18.854;2023-05-23T00:16:58;101089.42;;;14.18;54.56
55044;BME280;54902;50.420;18.854;2023-05-23T00:17:34;101082.19;;;14.17;54.47
55044;BME280;54902;50.420;18.854;2023-05-23T00:18:10;101090.44;;;14.17;54.52
55044;BME280;54902;50.420;18.854;2023-05-23T00:18:41;101085.93;;;14.16;54.50
55044;BME280;54902;50.420;18.854;2023-05-23T00:19:15;101091.43;;;14.16;54.48
55044;BME280;54902;50.420;18.854;2023-05-23T00:19:46;101081.48;;;14.15;54.39
55044;BME280;54902;50.420;18.854;2023-05-23T00:20:17;101086.98;;;14.15;54.38
55044;BME280;54902;50.420;18.854;2023-05-23T00:20:48;101093.47;;;14.14;54.62
55044;BME280;54902;50.420;18.854;2023-05-23T00:21:21;101085.23;;;14.14;54.57
55044;BME280;54902;50.420;18.854;2023-05-23T00:21:52;101087.98;;;14.14;54.60
55044;BME280;54902;50.420;18.854;2023-05-23T00:22:26;101083.48;;;14.13;54.76
55044;BME280;54902;50.420;18.854;2023-05-23T00:22:57;101084.49;;;14.12;54.86
55044;BME280;54902;50.420;18.854;2023-05-23T00:23:28;101085.38;;;14.12;54.78
55044;BME280;54902;50.420;18.854;2023-05-23T00:23:59;101093.63;;;14.12;54.71
55044;BME280;54902;50.420;18.854;2023-05-23T00:24:32;101085.38;;;14.12;54.75
55044;BME280;54902;50.420;18.854;2023-05-23T00:25:03;101086.53;;;14.10;54.68
55044;BME280;54902;50.420;18.854;2023-05-23T00:25:34;101088.41;;;14.09;54.62
55044;BME280;54902;50.420;18.854;2023-05-23T00:26:05;101089.27;;;14.10;54.88
55044;BME280;54902;50.420;18.854;2023-05-23T00:26:36;101085.67;;;14.09;54.89
55044;BME280;54902;50.420;18.854;2023-05-23T00:27:08;101084.78;;;14.09;54.84
55044;BME280;54902;50.420;18.854;2023-05-23T00:27:39;101087.53;;;14.09;54.92
55044;BME280;54902;50.420;18.854;2023-05-23T00:28:10;101083.05;;;14.08;54.86
55044;BME280;54902;50.420;18.854;2023-05-23T00:28:41;101089.54;;;14.07;54.74
55044;BME280;54902;50.420;18.854;2023-05-23T00:29:12;101087.68;;;14.07;54.72
55044;BME280;54902;50.420;18.854;2023-05-23T00:29:46;101086.79;;;14.07;54.72
55044;BME280;54902;50.420;18.854;2023-05-23T00:30:17;101087.79;;;14.06;54.71
55044;BME280;54902;50.420;18.854;2023-05-23T00:30:48;101081.41;;;14.05;54.67
55044;BME280;54902;50.420;18.854;2023-05-23T00:31:19;101078.66;;;14.05;54.73
55044;BME280;54902;50.420;18.854;2023-05-23T00:31:50;101077.80;;;14.05;54.71
55044;BME280;54902;50.420;18.854;2023-05-23T00:32:21;101082.45;;;14.04;54.64
55044;BME280;54902;50.420;18.854;2023-05-23T00:32:54;101084.30;;;14.04;54.58
55044;BME280;54902;50.420;18.854;2023-05-23T00:33:25;101075.20;;;14.03;54.47
55044;BME280;54902;50.420;18.854;2023-05-23T00:33:56;101081.71;;;14.02;54.47
55044;BME280;54902;50.420;18.854;2023-05-23T00:34:27;101085.34;;;14.03;54.41
55044;BME280;54902;50.420;18.854;2023-05-23T00:34:58;101084.45;;;14.02;54.41
55044;BME280;54902;50.420;18.854;2023-05-23T00:35:29;101083.45;;;14.03;54.40
55044;BME280;54902;50.420;18.854;2023-05-23T00:36:00;101078.11;;;14.02;54.34
55044;BME280;54902;50.420;18.854;2023-05-23T00:36:31;101083.59;;;14.02;54.33
55044;BME280;54902;50.420;18.854;2023-05-23T00:37:07;101083.74;;;14.00;54.31
55044;BME280;54902;50.420;18.854;2023-05-23T00:37:37;101080.11;;;14.00;54.27
55044;BME280;54902;50.420;18.854;2023-05-23T00:38:09;101078.40;;;13.99;54.18
55044;BME280;54902;50.420;18.854;2023-05-23T00:38:40;101082.85;;;14.00;54.17
55044;BME280;54902;50.420;18.854;2023-05-23T00:39:15;101082.14;;;13.98;54.19
55044;BME280;54902;50.420;18.854;2023-05-23T00:39:49;101083.00;;;13.98;54.21
55044;BME280;54902;50.420;18.854;2023-05-23T00:40:21;101074.91;;;13.97;54.17
55044;BME280;54902;50.420;18.854;2023-05-23T00:40:52;101085.90;;;13.97;54.20
55044;BME280;54902;50.420;18.854;2023-05-23T00:41:23;101081.40;;;13.96;54.18
55044;BME280;54902;50.420;18.854;2023-05-23T00:42:03;101078.66;;;13.96;54.15
55044;BME280;54902;50.420;18.854;2023-05-23T00:42:35;101082.41;;;13.95;54.09
55044;BME280;54902;50.420;18.854;2023-05-23T00:43:06;101086.19;;;13.94;54.07
55044;BME280;54902;50.420;18.854;2023-05-23T00:43:41;101078.95;;;13.93;54.06
55044;BME280;54902;50.420;18.854;2023-05-23T00:44:12;101085.45;;;13.92;54.07
55044;BME280;54902;50.420;18.854;2023-05-23T00:44:43;101077.35;;;13.91;54.06
55044;BME280;54902;50.420;18.854;2023-05-23T00:45:14;101076.49;;;13.90;54.07
55044;BME280;54902;50.420;18.854;2023-05-23T00:45:47;101078.36;;;13.90;54.01
55044;BME280;54902;50.420;18.854;2023-05-23T00:46:18;101087.63;;;13.89;54.10
55044;BME280;54902;50.420;18.854;2023-05-23T00:46:52;101085.88;;;13.88;54.06
55044;BME280;54902;50.420;18.854;2023-05-23T00:47:24;101084.14;;;13.87;54.06
55044;BME280;54902;50.420;18.854;2023-05-23T00:47:55;101083.29;;;13.86;53.99
55044;BME280;54902;50.420;18.854;2023-05-23T00:48:29;101079.80;;;13.84;54.03
55044;BME280;54902;50.420;18.854;2023-05-23T00:49:00;101090.79;;;13.84;54.00
55044;BME280;54902;50.420;18.854;2023-05-23T00:49:32;101081.84;;;13.82;53.97
55044;BME280;54902;50.420;18.854;2023-05-23T00:50:03;101083.83;;;13.80;53.91
55044;BME280;54902;50.420;18.854;2023-05-23T00:50:34;101087.59;;;13.79;53.96
55044;BME280;54902;50.420;18.854;2023-05-23T00:51:06;101083.24;;;13.77;53.99
55044;BME280;54902;50.420;18.854;2023-05-23T00:51:37;101083.39;;;13.75;53.95
55044;BME280;54902;50.420;18.854;2023-05-23T00:52:09;101090.77;;;13.75;53.91
55044;BME280;54902;50.420;18.854;2023-05-23T00:52:41;101085.42;;;13.73;53.87
55044;BME280;54902;50.420;18.854;2023-05-23T00:53:13;101081.07;;;13.71;53.88
55044;BME280;54902;50.420;18.854;2023-05-23T00:53:46;101089.32;;;13.71;53.92
55044;BME280;54902;50.420;18.854;2023-05-23T00:54:20;101084.98;;;13.68;53.90
55044;BME280;54902;50.420;18.854;2023-05-23T00:54:53;101092.35;;;13.68;53.98
55044;BME280;54902;50.420;18.854;2023-05-23T00:55:25;101088.72;;;13.67;54.00
55044;BME280;54902;50.420;18.854;2023-05-23T00:55:56;101082.52;;;13.65;54.01
55044;BME280;54902;50.420;18.854;2023-05-23T00:56:27;101087.27;;;13.63;54.03
55044;BME280;54902;50.420;18.854;2023-05-23T00:56:59;101089.30;;;13.61;54.00
55044;BME280;54902;50.420;18.854;2023-05-23T00:57:31;101087.56;;;13.60;53.92
55044;BME280;54902;50.420;18.854;2023-05-23T00:58:04;101083.20;;;13.58;53.97
55044;BME280;54902;50.420;18.854;2023-05-23T00:58:36;101087.84;;;13.57;54.02
55044;BME280;54902;50.420;18.854;2023-05-23T00:59:07;101087.09;;;13.55;53.94
55044;BME280;54902;50.420;18.854;2023-05-23T00:59:38;101080.90;;;13.53;53.95
55044;BME280;54902;50.420;18.854;2023-05-23T01:00:11;101092.88;;;13.52;53.99
55044;BME280;54902;50.420;18.854;2023-05-23T01:00:43;101086.64;;;13.50;53.99
55044;BME280;54902;50.420;18.854;2023-05-23T01:01:20;101085.93;;;13.48;53.95
55044;BME280;54902;50.420;18.854;2023-05-23T01:01:53;101086.08;;;13.47;53.91
55044;BME280;54902;50.420;18.854;2023-05-23T01:02:25;101087.23;;;13.44;53.94
55044;BME280;54902;50.420;18.854;2023-05-23T01:02:57;101088.22;;;13.43;53.89
55044;BME280;54902;50.420;18.854;2023-05-23T01:03:28;101091.25;;;13.40;53.86
55044;BME280;54902;50.420;18.854;2023-05-23T01:03:59;101086.76;;;13.39;53.83
55044;BME280;54902;50.420;18.854;2023-05-23T01:04:34;101081.41;;;13.38;53.86
55044;BME280;54902;50.420;18.854;2023-05-23T01:05:06;101088.05;;;13.36;53.89
55044;BME280;54902;50.420;18.854;2023-05-23T01:05:39;101090.79;;;13.36;53.93
55044;BME280;54902;50.420;18.854;2023-05-23T01:06:10;101081.96;;;13.32;53.96
55044;BME280;54902;50.420;18.854;2023-05-23T01:06:41;101086.59;;;13.32;53.93
55044;BME280;54902;50.420;18.854;2023-05-23T01:07:18;101087.59;;;13.31;53.97
55044;BME280;54902;50.420;18.854;2023-05-23T01:07:50;101078.75;;;13.27;53.96
55044;BME280;54902;50.420;18.854;2023-05-23T01:08:21;101077.05;;;13.26;53.94
55044;BME280;54902;50.420;18.854;2023-05-23T01:08:52;101087.13;;;13.26;54.03
55044;BME280;54902;50.420;18.854;2023-05-23T01:09:24;101071.80;;;13.23;54.04
55044;BME280;54902;50.420;18.854;2023-05-23T01:09:57;101076.58;;;13.21;54.03
55044;BME280;54902;50.420;18.854;2023-05-23T01:10:29;101076.58;;;13.21;54.01
55044;BME280;54902;50.420;18.854;2023-05-23T01:11:13;101079.61;;;13.18;53.97
55044;BME280;54902;50.420;18.854;2023-05-23T01:11:44;101080.76;;;13.16;54.02
55044;BME280;54902;50.420;18.854;2023-05-23T01:13:56;101078.54;;;13.10;54.08
55044;BME280;54902;50.420;18.854;2023-05-23T01:14:39;101070.59;;;13.07;54.01
55044;BME280;54902;50.420;18.854;2023-05-23T01:15:16;101062.46;;;12.96;53.95
55044;BME280;54902;50.420;18.854;2023-05-23T01:16:44;101083.84;;;13.02;54.07
55044;BME280;54902;50.420;18.854;2023-05-23T01:17:25;101079.49;;;12.99;54.05
55044;BME280;54902;50.420;18.854;2023-05-23T01:18:03;101076.90;;;12.98;54.06
55044;BME280;54902;50.420;18.854;2023-05-23T01:19:39;101082.66;;;12.95;54.03
55044;BME280;54902;50.420;18.854;2023-05-23T01:20:10;101077.43;;;12.92;54.01
55044;BME280;54902;50.420;18.854;2023-05-23T01:20:49;101081.20;;;12.91;54.05
55044;BME280;54902;50.420;18.854;2023-05-23T01:21:22;101070.48;;;12.88;54.11
55044;BME280;54902;50.420;18.854;2023-05-23T01:21:55;101079.73;;;12.87;54.14
55044;BME280;54902;50.420;18.854;2023-05-23T01:23:28;101083.72;;;12.83;54.22
55044;BME280;54902;50.420;18.854;2023-05-23T01:28:27;101075.35;;;12.64;54.23
55044;BME280;54902;50.420;18.854;2023-05-23T01:29:10;101080.12;;;12.62;54.25
55044;BME280;54902;50.420;18.854;2023-05-23T01:29:45;101080.37;;;12.59;54.23
55044;BME280;54902;50.420;18.854;2023-05-23T01:30:18;101076.05;;;12.57;54.28
55044;BME280;54902;50.420;18.854;2023-05-23T01:30:51;101076.30;;;12.54;54.31
55044;BME280;54902;50.420;18.854;2023-05-23T01:31:23;101077.28;;;12.53;54.28
55044;BME280;54902;50.420;18.854;2023-05-23T01:31:58;101081.19;;;12.50;54.26
55044;BME280;54902;50.420;18.854;2023-05-23T01:32:31;101078.69;;;12.47;54.25
55044;BME280;54902;50.420;18.854;2023-05-23T01:33:03;101075.23;;;12.45;54.30
55044;BME280;54902;50.420;18.854;2023-05-23T01:33:35;101080.84;;;12.44;54.32
55044;BME280;54902;50.420;18.854;2023-05-23T01:34:08;101083.83;;;12.41;54.29
55044;BME280;54902;50.420;18.854;2023-05-23T01:34:40;101082.13;;;12.40;54.32
55044;BME280;54902;50.420;18.854;2023-05-23T01:35:13;101075.04;;;12.37;54.34
55044;BME280;54902;50.420;18.854;2023-05-23T01:35:50;101065.20;;;12.35;54.35
55044;BME280;54902;50.420;18.854;2023-05-23T01:36:22;101073.56;;;12.33;54.41
55044;BME280;54902;50.420;18.854;2023-05-23T01:36:53;101081.03;;;12.31;54.41
55044;BME280;54902;50.420;18.854;2023-05-23T01:37:27;101072.09;;;12.29;54.42
55044;BME280;54902;50.420;18.854;2023-05-23T01:37:59;101074.07;;;12.27;54.43
55044;BME280;54902;50.420;18.854;2023-05-23T01:38:30;101076.95;;;12.26;54.40
55044;BME280;54902;50.420;18.854;2023-05-23T01:39:01;101083.56;;;12.23;54.34
55044;BME280;54902;50.420;18.854;2023-05-23T01:39:32;101076.33;;;12.22;54.36
55044;BME280;54902;50.420;18.854;2023-05-23T01:40:03;101075.62;;;12.20;54.39
55044;BME280;54902;50.420;18.854;2023-05-23T01:40:34;101072.12;;;12.18;54.38
55044;BME280;54902;50.420;18.854;2023-05-23T01:41:05;101076.88;;;12.17;54.41
55044;BME280;54902;50.420;18.854;2023-05-23T01:41:36;101067.91;;;12.15;54.44
55044;BME280;54902;50.420;18.854;2023-05-23T01:42:08;101069.79;;;12.14;54.46
55044;BME280;54902;50.420;18.854;2023-05-23T01:42:42;101065.45;;;12.12;54.29
55044;BME280;54902;50.420;18.854;2023-05-23T01:43:14;101070.17;;;12.10;54.46
55044;BME280;54902;50.420;18.854;2023-05-23T01:43:46;101075.64;;;12.10;54.50
55044;BME280;54902;50.420;18.854;2023-05-23T01:44:17;101075.91;;;12.07;54.52
55044;BME280;54902;50.420;18.854;2023-05-23T01:44:49;101064.96;;;12.07;54.54
55044;BME280;54902;50.420;18.854;2023-05-23T01:45:20;101065.95;;;12.06;54.51
55044;BME280;54902;50.420;18.854;2023-05-23T01:45:52;101070.71;;;12.04;54.52
55044;BME280;54902;50.420;18.854;2023-05-23T01:46:26;101067.22;;;12.02;54.52
55044;BME280;54902;50.420;18.854;2023-05-23T01:46:58;101063.75;;;12.00;54.55
55044;BME280;54902;50.420;18.854;2023-05-23T01:47:30;101062.86;;;11.99;54.58
55044;BME280;54902;50.420;18.854;2023-05-23T01:48:02;101065.74;;;11.98;54.56
55044;BME280;54902;50.420;18.854;2023-05-23T01:48:37;101064.88;;;11.97;54.59
55044;BME280;54902;50.420;18.854;2023-05-23T01:49:12;101061.40;;;11.95;54.59
55044;BME280;54902;50.420;18.854;2023-05-23T01:49:44;101067.00;;;11.94;54.59
55044;BME280;54902;50.420;18.854;2023-05-23T01:50:16;101065.25;;;11.93;54.69
55044;BME280;54902;50.420;18.854;2023-05-23T01:50:47;101065.39;;;11.91;54.65
55044;BME280;54902;50.420;18.854;2023-05-23T01:51:20;101061.93;;;11.89;54.66
55044;BME280;54902;50.420;18.854;2023-05-23T01:51:52;101054.36;;;11.82;54.61
55044;BME280;54902;50.420;18.854;2023-05-23T01:52:23;101061.17;;;11.87;54.58
55044;BME280;54902;50.420;18.854;2023-05-23T01:52:56;101064.94;;;11.86;54.57
55044;BME280;54902;50.420;18.854;2023-05-23T01:53:27;101059.55;;;11.85;54.53
55044;BME280;54902;50.420;18.854;2023-05-23T01:54:00;101063.32;;;11.84;54.49
55044;BME280;54902;50.420;18.854;2023-05-23T01:54:32;101064.31;;;11.83;54.47
55044;BME280;54902;50.420;18.854;2023-05-23T01:55:05;101067.05;;;11.83;54.53
55044;BME280;54902;50.420;18.854;2023-05-23T01:55:43;101064.45;;;11.81;54.52
55044;BME280;54902;50.420;18.854;2023-05-23T01:56:15;101067.31;;;11.80;54.58
55044;BME280;54902;50.420;18.854;2023-05-23T01:56:49;101067.31;;;11.80;54.61
55044;BME280;54902;50.420;18.854;2023-05-23T01:57:21;101061.94;;;11.78;54.65
55044;BME280;54902;50.420;18.854;2023-05-23T01:57:56;101063.69;;;11.79;54.71
55044;BME280;54902;50.420;18.854;2023-05-23T01:58:28;101068.30;;;11.79;54.72
55044;BME280;54902;50.420;18.854;2023-05-23T01:58:59;101069.30;;;11.78;54.71
55044;BME280;54902;50.420;18.854;2023-05-23T01:59:31;101065.84;;;11.76;54.72
55044;BME280;54902;50.420;18.854;2023-05-23T02:00:05;101063.10;;;11.76;54.74
55044;BME280;54902;50.420;18.854;2023-05-23T02:00:37;101066.83;;;11.75;54.77
55044;BME280;54902;50.420;18.854;2023-05-23T02:01:08;101056.02;;;11.73;54.71
55044;BME280;54902;50.420;18.854;2023-05-23T02:01:40;101065.09;;;11.74;54.57
55044;BME280;54902;50.420;18.854;2023-05-23T02:02:11;101065.22;;;11.72;54.71
55044;BME280;54902;50.420;18.854;2023-05-23T02:02:42;101062.61;;;11.71;54.76
55044;BME280;54902;50.420;18.854;2023-05-23T02:03:13;101061.73;;;11.70;54.72
55044;BME280;54902;50.420;18.854;2023-05-23T02:03:44;101067.20;;;11.70;54.70
55044;BME280;54902;50.420;18.854;2023-05-23T02:04:15;101064.59;;;11.69;54.74
55044;BME280;54902;50.420;18.854;2023-05-23T02:04:48;101062.88;;;11.68;54.77
55044;BME280;54902;50.420;18.854;2023-05-23T02:05:19;101066.60;;;11.67;54.83
55044;BME280;54902;50.420;18.854;2023-05-23T02:05:50;101065.72;;;11.66;54.80
55044;BME280;54902;50.420;18.854;2023-05-23T02:06:21;101067.59;;;11.66;54.79
55044;BME280;54902;50.420;18.854;2023-05-23T02:06:51;101058.63;;;11.64;54.83
55044;BME280;54902;50.420;18.854;2023-05-23T02:07:22;101065.13;;;11.63;54.84
55044;BME280;54902;50.420;18.854;2023-05-23T02:07:53;101061.50;;;11.62;54.79
55044;BME280;54902;50.420;18.854;2023-05-23T02:08:24;101068.85;;;11.62;54.76
55044;BME280;54902;50.420;18.854;2023-05-23T02:08:55;101067.10;;;11.61;54.80
55044;BME280;54902;50.420;18.854;2023-05-23T02:09:26;101071.72;;;11.61;54.86
55044;BME280;54902;50.420;18.854;2023-05-23T02:09:57;101069.98;;;11.60;54.82
55044;BME280;54902;50.420;18.854;2023-05-23T02:10:28;101069.13;;;11.59;54.78
55044;BME280;54902;50.420;18.854;2023-05-23T02:10:59;101065.62;;;11.57;54.79
55044;BME280;54902;50.420;18.854;2023-05-23T02:11:30;101071.10;;;11.57;54.83
55044;BME280;54902;50.420;18.854;2023-05-23T02:12:01;101067.64;;;11.55;54.87
55044;BME280;54902;50.420;18.854;2023-05-23T02:12:33;101066.75;;;11.55;54.88
55044;BME280;54902;50.420;18.854;2023-05-23T02:13:04;101071.36;;;11.54;54.88
55044;BME280;54902;50.420;18.854;2023-05-23T02:13:35;101069.61;;;11.53;54.92
55044;BME280;54902;50.420;18.854;2023-05-23T02:14:06;101070.61;;;11.52;54.93
55044;BME280;54902;50.420;18.854;2023-05-23T02:14:37;101070.73;;;11.51;54.96
55044;BME280;54902;50.420;18.854;2023-05-23T02:15:11;101064.41;;;11.50;55.02
55044;BME280;54902;50.420;18.854;2023-05-23T02:15:42;101065.49;;;11.48;55.05
55044;BME280;54902;50.420;18.854;2023-05-23T02:16:13;101063.75;;;11.47;55.05
55044;BME280;54902;50.420;18.854;2023-05-23T02:16:44;101068.37;;;11.46;55.02
55044;BME280;54902;50.420;18.854;2023-05-23T02:17:15;101070.33;;;11.44;55.04
55044;BME280;54902;50.420;18.854;2023-05-23T02:17:46;101060.42;;;11.43;55.08
55044;BME280;54902;50.420;18.854;2023-05-23T02:18:19;101065.13;;;11.41;55.11
55044;BME280;54902;50.420;18.854;2023-05-23T02:18:50;101064.27;;;11.41;55.13
55044;BME280;54902;50.420;18.854;2023-05-23T02:19:22;101059.80;;;11.40;55.15
55044;BME280;54902;50.420;18.854;2023-05-23T02:19:53;101068.13;;;11.38;55.15
55044;BME280;54902;50.420;18.854;2023-05-23T02:20:24;101062.79;;;11.37;55.18
55044;BME280;54902;50.420;18.854;2023-05-23T02:20:55;101061.03;;;11.36;55.19
55044;BME280;54902;50.420;18.854;2023-05-23T02:21:26;101061.03;;;11.36;55.20
55044;BME280;54902;50.420;18.854;2023-05-23T02:21:57;101063.02;;;11.34;55.22
55044;BME280;54902;50.420;18.854;2023-05-23T02:22:28;101073.09;;;11.33;55.25
55044;BME280;54902;50.420;18.854;2023-05-23T02:22:59;101065.02;;;11.32;55.18
55044;BME280;54902;50.420;18.854;2023-05-23T02:23:30;101067.90;;;11.30;55.19
55044;BME280;54902;50.420;18.854;2023-05-23T02:24:01;101057.94;;;11.29;55.20
55044;BME280;54902;50.420;18.854;2023-05-23T02:24:32;101058.07;;;11.28;55.25
55044;BME280;54902;50.420;18.854;2023-05-23T02:25:03;101067.14;;;11.28;55.27
55044;BME280;54902;50.420;18.854;2023-05-23T02:25:34;101060.95;;;11.26;55.26
55044;BME280;54902;50.420;18.854;2023-05-23T02:26:05;101071.88;;;11.26;55.24
55044;BME280;54902;50.420;18.854;2023-05-23T02:26:36;101061.93;;;11.25;55.22
55044;BME280;54902;50.420;18.854;2023-05-23T02:27:07;101068.38;;;11.24;55.24
55044;BME280;54902;50.420;18.854;2023-05-23T02:27:38;101062.91;;;11.24;55.26
55044;BME280;54902;50.420;18.854;2023-05-23T02:28:09;101061.17;;;11.23;55.28
55044;BME280;54902;50.420;18.854;2023-05-23T02:28:42;101065.78;;;11.23;55.31
55044;BME280;54902;50.420;18.854;2023-05-23T02:29:13;101063.16;;;11.21;55.31
55044;BME280;54902;50.420;18.854;2023-05-23T02:29:44;101060.45;;;11.21;55.34
55044;BME280;54902;50.420;18.854;2023-05-23T02:30:15;101061.42;;;11.20;55.39
55044;BME280;54902;50.420;18.854;2023-05-23T02:30:46;101067.88;;;11.19;55.39
55044;BME280;54902;50.420;18.854;2023-05-23T02:31:17;101060.70;;;11.18;55.39
55044;BME280;54902;50.420;18.854;2023-05-23T02:31:48;101073.48;;;11.18;55.38
55044;BME280;54902;50.420;18.854;2023-05-23T02:32:20;101071.64;;;11.18;55.37
55044;BME280;54902;50.420;18.854;2023-05-23T02:32:51;101070.88;;;11.16;55.32
55044;BME280;54902;50.420;18.854;2023-05-23T02:33:22;101063.66;;;11.15;55.35
55044;BME280;54902;50.420;18.854;2023-05-23T02:33:53;101074.59;;;11.15;55.31
55044;BME280;54902;50.420;18.854;2023-05-23T02:34:24;101069.13;;;11.15;55.33
55044;BME280;54902;50.420;18.854;2023-05-23T02:34:55;101064.64;;;11.14;55.26
55044;BME280;54902;50.420;18.854;2023-05-23T02:35:27;101072.84;;;11.14;55.30
55044;BME280;54902;50.420;18.854;2023-05-23T02:35:58;101059.57;;;11.10;55.27
55044;BME280;54902;50.420;18.854;2023-05-23T02:36:29;101064.77;;;11.13;55.23
55044;BME280;54902;50.420;18.854;2023-05-23T02:37:03;101062.16;;;11.11;55.20
55044;BME280;54902;50.420;18.854;2023-05-23T02:37:34;101063.29;;;11.09;55.37
55044;BME280;54902;50.420;18.854;2023-05-23T02:38:05;101067.64;;;11.11;55.37
55044;BME280;54902;50.420;18.854;2023-05-23T02:38:36;101064.05;;;11.11;55.35
55044;BME280;54902;50.420;18.854;2023-05-23T02:39:07;101071.36;;;11.10;55.38
55044;BME280;54902;50.420;18.854;2023-05-23T02:39:38;101060.42;;;11.10;55.43
55044;BME280;54902;50.420;18.854;2023-05-23T02:40:11;101065.04;;;11.10;55.43
55044;BME280;54902;50.420;18.854;2023-05-23T02:40:42;101062.43;;;11.08;55.41
55044;BME280;54902;50.420;18.854;2023-05-23T02:41:14;101067.04;;;11.08;55.47
55044;BME280;54902;50.420;18.854;2023-05-23T02:41:45;101059.70;;;11.08;55.45
55044;BME280;54902;50.420;18.854;2023-05-23T02:42:15;101066.15;;;11.07;55.48
55044;BME280;54902;50.420;18.854;2023-05-23T02:42:46;101063.55;;;11.06;55.52
55044;BME280;54902;50.420;18.854;2023-05-23T02:43:18;101063.55;;;11.06;55.54
55044;BME280;54902;50.420;18.854;2023-05-23T02:43:48;101062.68;;;11.05;55.61
55044;BME280;54902;50.420;18.854;2023-05-23T02:44:19;101067.27;;;11.05;55.63
55044;BME280;54902;50.420;18.854;2023-05-23T02:44:50;101064.66;;;11.03;55.59
55044;BME280;54902;50.420;18.854;2023-05-23T02:45:22;101062.91;;;11.02;55.62
55044;BME280;54902;50.420;18.854;2023-05-23T02:45:53;101060.18;;;11.02;55.70
55044;BME280;54902;50.420;18.854;2023-05-23T02:46:24;101066.67;;;11.02;55.72
55044;BME280;54902;50.420;18.854;2023-05-23T02:46:55;101066.67;;;11.02;55.58
55044;BME280;54902;50.420;18.854;2023-05-23T02:47:26;101061.20;;;11.02;55.59
55044;BME280;54902;50.420;18.854;2023-05-23T02:47:57;101067.65;;;11.01;55.66
55044;BME280;54902;50.420;18.854;2023-05-23T02:48:28;101057.71;;;11.00;55.64
55044;BME280;54902;50.420;18.854;2023-05-23T02:48:59;101061.30;;;11.00;55.62
55044;BME280;54902;50.420;18.854;2023-05-23T02:49:30;101056.84;;;10.99;55.63
55044;BME280;54902;50.420;18.854;2023-05-23T02:50:01;101055.95;;;10.99;55.62
55044;BME280;54902;50.420;18.854;2023-05-23T02:50:32;101057.71;;;11.00;55.62
55044;BME280;54902;50.420;18.854;2023-05-23T02:51:03;101053.22;;;10.99;55.65
55044;BME280;54902;50.420;18.854;2023-05-23T02:51:34;101061.42;;;10.99;55.63
55044;BME280;54902;50.420;18.854;2023-05-23T02:52:06;101058.69;;;10.99;55.59
55044;BME280;54902;50.420;18.854;2023-05-23T02:52:37;101049.63;;;10.98;55.66
55044;BME280;54902;50.420;18.854;2023-05-23T02:53:08;101059.72;;;10.98;55.65
55044;BME280;54902;50.420;18.854;2023-05-23T02:53:39;101047.89;;;10.97;55.66
55044;BME280;54902;50.420;18.854;2023-05-23T02:54:10;101054.34;;;10.96;55.72